sensor_id;sensor_type;location;lat;lon;timestamp;temperature;humidity
11083;DHT22;5595;50.186;8.468;2023-05-18T00:01:54;8.00;99.30
11083;DHT22;5595;50.186;8.468;2023-05-18T00:04:22;8.00;99.30
11083;DHT22;5595;50.186;8.468;2023-05-18T00:06:50;8.00;99.20
11083;DHT22;5595;50.186;8.468;2023-05-18T00:09:22;8.00;99.30
11083;DHT22;5595;50.186;8.468;2023-05-18T00:11:52;8.30;99.40
11083;DHT22;5595;50.186;8.468;2023-05-18T00:14:19;8.00;99.30
11083;DHT22;5595;50.186;8.468;2023-05-18T00:16:49;8.00;99.40
11083;DHT22;5595;50.186;8.468;2023-05-18T00:19:18;8.00;99.40
11083;DHT22;5595;50.186;8.468;2023-05-18T00:21:47;8.00;99.40
11083;DHT22;5595;50.186;8.468;2023-05-18T00:24:18;8.00;99.40
11083;DHT22;5595;50.186;8.468;2023-05-18T00:26:46;8.00;99.50
11083;DHT22;5595;50.186;8.468;2023-05-18T00:29:14;8.00;99.50
11083;DHT22;5595;50.186;8.468;2023-05-18T00:31:41;7.60;99.40
11083;DHT22;5595;50.186;8.468;2023-05-18T00:34:10;8.00;99.60
11083;DHT22;5595;50.186;8.468;2023-05-18T00:36:38;8.00;99.60
11083;DHT22;5595;50.186;8.468;2023-05-18T00:39:07;8.00;99.60
11083;DHT22;5595;50.186;8.468;2023-05-18T00:41:35;7.90;99.50
11083;DHT22;5595;50.186;8.468;2023-05-18T00:44:02;7.90;99.60
11083;DHT22;5595;50.186;8.468;2023-05-18T00:46:29;7.90;99.60
11083;DHT22;5595;50.186;8.468;2023-05-18T00:48:57;7.90;99.70
11083;DHT22;5595;50.186;8.468;2023-05-18T00:51:26;8.20;99.90
11083;DHT22;5595;50.186;8.468;2023-05-18T00:53:54;7.80;99.80
11083;DHT22;5595;50.186;8.468;2023-05-18T00:56:23;7.80;99.80
11083;DHT22;5595;50.186;8.468;2023-05-18T00:58:52;7.80;99.90
11083;DHT22;5595;50.186;8.468;2023-05-18T01:01:22;7.80;99.90
11083;DHT22;5595;50.186;8.468;2023-05-18T01:03:53;7.70;99.90
11083;DHT22;5595;50.186;8.468;2023-05-18T01:06:21;7.60;99.90
11083;DHT22;5595;50.186;8.468;2023-05-18T01:08:50;7.70;99.90
11083;DHT22;5595;50.186;8.468;2023-05-18T01:11:25;7.80;99.90
11083;DHT22;5595;50.186;8.468;2023-05-18T01:14:02;7.70;99.90
11083;DHT22;5595;50.186;8.468;2023-05-18T01:16:33;7.70;99.90
11083;DHT22;5595;50.186;8.468;2023-05-18T01:19:08;7.70;99.90
11083;DHT22;5595;50.186;8.468;2023-05-18T01:21:51;7.70;99.90
11083;DHT22;5595;50.186;8.468;2023-05-18T01:24:29;7.70;99.90
11083;DHT22;5595;50.186;8.468;2023-05-18T01:27:00;7.70;99.90
11083;DHT22;5595;50.186;8.468;2023-05-18T01:29:28;7.60;99.90
11083;DHT22;5595;50.186;8.468;2023-05-18T01:31:56;7.60;99.90
11083;DHT22;5595;50.186;8.468;2023-05-18T01:34:23;8.00;99.90
11083;DHT22;5595;50.186;8.468;2023-05-18T01:36:50;7.60;99.90
11083;DHT22;5595;50.186;8.468;2023-05-18T01:39:17;7.70;99.90
11083;DHT22;5595;50.186;8.468;2023-05-18T01:41:51;7.60;99.90
11083;DHT22;5595;50.186;8.468;2023-05-18T01:44:25;7.60;99.90
11083;DHT22;5595;50.186;8.468;2023-05-18T01:46:58;7.70;99.90
11083;DHT22;5595;50.186;8.468;2023-05-18T01:49:30;7.60;99.90
11083;DHT22;5595;50.186;8.468;2023-05-18T01:52:02;7.60;99.90
11083;DHT22;5595;50.186;8.468;2023-05-18T01:54:31;7.60;99.90
11083;DHT22;5595;50.186;8.468;2023-05-18T01:56:59;7.60;99.90
11083;DHT22;5595;50.186;8.468;2023-05-18T01:59:28;7.70;99.90
11083;DHT22;5595;50.186;8.468;2023-05-18T02:02:00;7.70;99.90
11083;DHT22;5595;50.186;8.468;2023-05-18T02:04:28;7.70;99.90
11083;DHT22;5595;50.186;8.468;2023-05-18T02:06:55;7.90;99.90
11083;DHT22;5595;50.186;8.468;2023-05-18T02:09:22;7.70;99.90
11083;DHT22;5595;50.186;8.468;2023-05-18T02:11:49;8.00;99.90
11083;DHT22;5595;50.186;8.468;2023-05-18T02:14:16;7.70;99.90
11083;DHT22;5595;50.186;8.468;2023-05-18T02:16:44;7.70;99.90
11083;DHT22;5595;50.186;8.468;2023-05-18T02:19:17;7.70;99.90
11083;DHT22;5595;50.186;8.468;2023-05-18T02:21:44;8.00;99.90
11083;DHT22;5595;50.186;8.468;2023-05-18T02:24:11;7.70;99.90
11083;DHT22;5595;50.186;8.468;2023-05-18T02:26:38;7.60;99.90
11083;DHT22;5595;50.186;8.468;2023-05-18T02:29:06;7.80;99.90
11083;DHT22;5595;50.186;8.468;2023-05-18T02:31:36;7.60;99.90
11083;DHT22;5595;50.186;8.468;2023-05-18T02:34:06;7.60;99.90
11083;DHT22;5595;50.186;8.468;2023-05-18T02:36:33;7.60;99.90
11083;DHT22;5595;50.186;8.468;2023-05-18T02:39:04;7.60;99.90
11083;DHT22;5595;50.186;8.468;2023-05-18T02:41:31;7.60;99.90
11083;DHT22;5595;50.186;8.468;2023-05-18T02:43:58;8.00;99.90
11083;DHT22;5595;50.186;8.468;2023-05-18T02:46:26;7.60;99.90
11083;DHT22;5595;50.186;8.468;2023-05-18T02:48:53;7.50;99.90
11083;DHT22;5595;50.186;8.468;2023-05-18T02:51:21;7.50;99.90
11083;DHT22;5595;50.186;8.468;2023-05-18T02:53:49;7.50;99.90
11083;DHT22;5595;50.186;8.468;2023-05-18T02:56:16;7.30;99.90
11083;DHT22;5595;50.186;8.468;2023-05-18T02:58:43;7.30;99.90
11083;DHT22;5595;50.186;8.468;2023-05-18T03:01:10;7.30;99.90
11083;DHT22;5595;50.186;8.468;2023-05-18T03:03:38;7.30;99.90
11083;DHT22;5595;50.186;8.468;2023-05-18T03:06:06;7.20;99.90
11083;DHT22;5595;50.186;8.468;2023-05-18T03:08:35;7.30;99.90
11083;DHT22;5595;50.186;8.468;2023-05-18T03:11:02;7.20;99.90
11083;DHT22;5595;50.186;8.468;2023-05-18T03:13:29;7.40;99.90
11083;DHT22;5595;50.186;8.468;2023-05-18T03:15:56;7.30;99.90
11083;DHT22;5595;50.186;8.468;2023-05-18T03:18:23;7.20;99.90
11083;DHT22;5595;50.186;8.468;2023-05-18T03:20:50;7.20;99.90
11083;DHT22;5595;50.186;8.468;2023-05-18T03:23:17;7.20;99.90
11083;DHT22;5595;50.186;8.468;2023-05-18T03:25:45;7.20;99.90
11083;DHT22;5595;50.186;8.468;2023-05-18T03:28:18;7.30;99.90
11083;DHT22;5595;50.186;8.468;2023-05-18T03:30:45;7.00;99.90
11083;DHT22;5595;50.186;8.468;2023-05-18T03:33:11;7.10;99.90
11083;DHT22;5595;50.186;8.468;2023-05-18T03:35:39;7.10;99.90
11083;DHT22;5595;50.186;8.468;2023-05-18T03:38:06;7.10;99.90
11083;DHT22;5595;50.186;8.468;2023-05-18T03:40:33;7.10;99.90
11083;DHT22;5595;50.186;8.468;2023-05-18T03:43:01;7.20;99.90
11083;DHT22;5595;50.186;8.468;2023-05-18T03:45:28;7.10;99.90
11083;DHT22;5595;50.186;8.468;2023-05-18T03:47:55;7.00;99.90
11083;DHT22;5595;50.186;8.468;2023-05-18T03:50:22;7.40;99.90
11083;DHT22;5595;50.186;8.468;2023-05-18T03:52:48;7.00;99.90
11083;DHT22;5595;50.186;8.468;2023-05-18T03:55:17;7.00;99.90
11083;DHT22;5595;50.186;8.468;2023-05-18T03:57:46;7.00;99.90
11083;DHT22;5595;50.186;8.468;2023-05-18T04:00:15;7.50;99.90
11083;DHT22;5595;50.186;8.468;2023-05-18T04:02:42;7.00;99.90
11083;DHT22;5595;50.186;8.468;2023-05-18T04:05:09;7.10;99.90
11083;DHT22;5595;50.186;8.468;2023-05-18T04:07:36;7.10;99.90
11083;DHT22;5595;50.186;8.468;2023-05-18T04:10:09;7.10;99.90
11083;DHT22;5595;50.186;8.468;2023-05-18T04:12:36;7.10;99.90
11083;DHT22;5595;50.186;8.468;2023-05-18T04:15:04;7.10;99.90
11083;DHT22;5595;50.186;8.468;2023-05-18T04:17:32;7.10;99.90
11083;DHT22;5595;50.186;8.468;2023-05-18T04:20:00;7.70;99.90
11083;DHT22;5595;50.186;8.468;2023-05-18T04:22:39;7.20;99.90
11083;DHT22;5595;50.186;8.468;2023-05-18T04:25:08;7.20;99.90
11083;DHT22;5595;50.186;8.468;2023-05-18T04:27:36;7.20;99.90
11083;DHT22;5595;50.186;8.468;2023-05-18T04:30:04;7.20;99.90
11083;DHT22;5595;50.186;8.468;2023-05-18T04:32:34;7.30;99.90
11083;DHT22;5595;50.186;8.468;2023-05-18T04:35:02;7.30;99.90
11083;DHT22;5595;50.186;8.468;2023-05-18T04:37:30;7.30;99.90
11083;DHT22;5595;50.186;8.468;2023-05-18T04:39:57;7.30;99.90
11083;DHT22;5595;50.186;8.468;2023-05-18T04:42:26;7.40;99.90
11083;DHT22;5595;50.186;8.468;2023-05-18T04:44:53;7.40;99.90
11083;DHT22;5595;50.186;8.468;2023-05-18T04:47:20;7.30;99.90
11083;DHT22;5595;50.186;8.468;2023-05-18T04:49:49;7.50;99.90
11083;DHT22;5595;50.186;8.468;2023-05-18T04:52:17;7.50;99.90
11083;DHT22;5595;50.186;8.468;2023-05-18T04:54:45;7.50;99.90
11083;DHT22;5595;50.186;8.468;2023-05-18T04:57:12;7.50;99.90
11083;DHT22;5595;50.186;8.468;2023-05-18T04:59:39;7.50;99.90
11083;DHT22;5595;50.186;8.468;2023-05-18T05:02:07;7.60;99.90
11083;DHT22;5595;50.186;8.468;2023-05-18T05:04:33;7.70;99.90
11083;DHT22;5595;50.186;8.468;2023-05-18T05:07:02;7.80;99.90
11083;DHT22;5595;50.186;8.468;2023-05-18T05:09:29;7.90;99.90
11083;DHT22;5595;50.186;8.468;2023-05-18T05:11:56;8.00;99.90
11083;DHT22;5595;50.186;8.468;2023-05-18T05:14:22;8.10;99.90
11083;DHT22;5595;50.186;8.468;2023-05-18T05:16:49;8.20;99.90
11083;DHT22;5595;50.186;8.468;2023-05-18T05:19:16;8.50;99.90
11083;DHT22;5595;50.186;8.468;2023-05-18T05:21:43;8.50;99.90
11083;DHT22;5595;50.186;8.468;2023-05-18T05:24:11;8.80;99.90
11083;DHT22;5595;50.186;8.468;2023-05-18T05:26:38;8.60;99.90
11083;DHT22;5595;50.186;8.468;2023-05-18T05:29:05;8.80;99.90
11083;DHT22;5595;50.186;8.468;2023-05-18T05:31:32;9.00;99.90
11083;DHT22;5595;50.186;8.468;2023-05-18T05:33:59;8.90;99.90
11083;DHT22;5595;50.186;8.468;2023-05-18T05:36:26;9.00;99.90
11083;DHT22;5595;50.186;8.468;2023-05-18T05:38:52;9.10;99.90
11083;DHT22;5595;50.186;8.468;2023-05-18T05:41:21;9.20;99.90
11083;DHT22;5595;50.186;8.468;2023-05-18T05:43:48;9.20;99.90
11083;DHT22;5595;50.186;8.468;2023-05-18T05:46:15;9.40;99.90
11083;DHT22;5595;50.186;8.468;2023-05-18T05:48:42;9.50;99.90
11083;DHT22;5595;50.186;8.468;2023-05-18T05:51:09;9.70;99.90
11083;DHT22;5595;50.186;8.468;2023-05-18T05:53:36;9.70;99.90
11083;DHT22;5595;50.186;8.468;2023-05-18T05:56:03;9.70;99.90
11083;DHT22;5595;50.186;8.468;2023-05-18T05:58:33;9.90;99.90
11083;DHT22;5595;50.186;8.468;2023-05-18T06:01:00;10.00;99.90
11083;DHT22;5595;50.186;8.468;2023-05-18T06:03:27;10.10;99.90
11083;DHT22;5595;50.186;8.468;2023-05-18T06:05:55;10.20;99.90
11083;DHT22;5595;50.186;8.468;2023-05-18T06:08:22;10.30;99.90
11083;DHT22;5595;50.186;8.468;2023-05-18T06:10:49;10.40;99.90
11083;DHT22;5595;50.186;8.468;2023-05-18T06:13:16;10.60;99.90
11083;DHT22;5595;50.186;8.468;2023-05-18T06:15:45;10.60;99.90
11083;DHT22;5595;50.186;8.468;2023-05-18T06:18:11;10.70;99.90
11083;DHT22;5595;50.186;8.468;2023-05-18T06:20:38;10.70;99.90
11083;DHT22;5595;50.186;8.468;2023-05-18T06:23:06;10.80;99.90
11083;DHT22;5595;50.186;8.468;2023-05-18T06:25:33;10.90;99.90
11083;DHT22;5595;50.186;8.468;2023-05-18T06:28:00;10.70;99.90
11083;DHT22;5595;50.186;8.468;2023-05-18T06:30:27;10.80;99.90
11083;DHT22;5595;50.186;8.468;2023-05-18T06:32:57;10.90;99.90
11083;DHT22;5595;50.186;8.468;2023-05-18T06:35:24;11.20;99.90
11083;DHT22;5595;50.186;8.468;2023-05-18T06:37:51;11.20;99.90
11083;DHT22;5595;50.186;8.468;2023-05-18T06:40:18;11.30;99.90
11083;DHT22;5595;50.186;8.468;2023-05-18T06:42:45;11.40;99.90
11083;DHT22;5595;50.186;8.468;2023-05-18T06:45:12;11.50;99.90
11083;DHT22;5595;50.186;8.468;2023-05-18T06:47:38;11.50;99.90
11083;DHT22;5595;50.186;8.468;2023-05-18T06:50:08;11.60;99.70
11083;DHT22;5595;50.186;8.468;2023-05-18T06:52:35;11.70;99.10
11083;DHT22;5595;50.186;8.468;2023-05-18T06:55:03;11.70;99.10
11083;DHT22;5595;50.186;8.468;2023-05-18T06:57:30;11.70;99.10
11083;DHT22;5595;50.186;8.468;2023-05-18T06:59:58;11.80;99.20
11083;DHT22;5595;50.186;8.468;2023-05-18T07:02:25;11.90;99.10
11083;DHT22;5595;50.186;8.468;2023-05-18T07:04:53;11.80;98.30
11083;DHT22;5595;50.186;8.468;2023-05-18T07:07:21;11.90;98.60
11083;DHT22;5595;50.186;8.468;2023-05-18T07:09:48;12.10;98.70
11083;DHT22;5595;50.186;8.468;2023-05-18T07:12:15;12.20;98.80
11083;DHT22;5595;50.186;8.468;2023-05-18T07:14:42;12.20;98.80
11083;DHT22;5595;50.186;8.468;2023-05-18T07:17:09;12.30;98.40
11083;DHT22;5595;50.186;8.468;2023-05-18T07:19:36;12.20;98.30
11083;DHT22;5595;50.186;8.468;2023-05-18T07:22:03;12.30;98.60
11083;DHT22;5595;50.186;8.468;2023-05-18T07:24:33;12.50;98.70
11083;DHT22;5595;50.186;8.468;2023-05-18T07:27:00;12.60;98.40
11083;DHT22;5595;50.186;8.468;2023-05-18T07:29:27;12.60;98.30
11083;DHT22;5595;50.186;8.468;2023-05-18T07:31:54;12.70;98.00
11083;DHT22;5595;50.186;8.468;2023-05-18T07:34:22;12.60;97.60
11083;DHT22;5595;50.186;8.468;2023-05-18T07:36:51;12.60;97.70
11083;DHT22;5595;50.186;8.468;2023-05-18T07:39:18;12.70;97.70
11083;DHT22;5595;50.186;8.468;2023-05-18T07:41:46;12.70;97.80
11083;DHT22;5595;50.186;8.468;2023-05-18T07:44:14;12.80;97.80
11083;DHT22;5595;50.186;8.468;2023-05-18T07:46:42;13.10;97.90
11083;DHT22;5595;50.186;8.468;2023-05-18T07:49:09;13.10;97.80
11083;DHT22;5595;50.186;8.468;2023-05-18T07:51:36;13.30;97.80
11083;DHT22;5595;50.186;8.468;2023-05-18T07:54:03;13.40;97.30
11083;DHT22;5595;50.186;8.468;2023-05-18T07:56:30;13.50;97.10
11083;DHT22;5595;50.186;8.468;2023-05-18T07:58:58;13.40;96.90
11083;DHT22;5595;50.186;8.468;2023-05-18T08:01:25;13.40;96.50
11083;DHT22;5595;50.186;8.468;2023-05-18T08:03:54;13.40;96.10
11083;DHT22;5595;50.186;8.468;2023-05-18T08:06:21;13.40;96.30
11083;DHT22;5595;50.186;8.468;2023-05-18T08:08:48;13.50;96.50
11083;DHT22;5595;50.186;8.468;2023-05-18T08:11:15;13.60;96.60
11083;DHT22;5595;50.186;8.468;2023-05-18T08:13:42;13.80;96.40
11083;DHT22;5595;50.186;8.468;2023-05-18T08:16:10;13.70;96.30
11083;DHT22;5595;50.186;8.468;2023-05-18T08:18:37;13.90;96.30
11083;DHT22;5595;50.186;8.468;2023-05-18T08:21:03;14.00;96.50
11083;DHT22;5595;50.186;8.468;2023-05-18T08:23:32;14.10;96.20
11083;DHT22;5595;50.186;8.468;2023-05-18T08:25:59;14.20;96.10
11083;DHT22;5595;50.186;8.468;2023-05-18T08:28:30;14.20;96.00
11083;DHT22;5595;50.186;8.468;2023-05-18T08:30:57;14.20;95.60
11083;DHT22;5595;50.186;8.468;2023-05-18T08:33:25;14.30;95.80
11083;DHT22;5595;50.186;8.468;2023-05-18T08:35:52;14.50;95.90
11083;DHT22;5595;50.186;8.468;2023-05-18T08:38:19;14.60;95.80
11083;DHT22;5595;50.186;8.468;2023-05-18T08:40:55;14.60;95.20
11083;DHT22;5595;50.186;8.468;2023-05-18T08:43:24;14.60;95.00
11083;DHT22;5595;50.186;8.468;2023-05-18T08:46:03;14.70;94.90
11083;DHT22;5595;50.186;8.468;2023-05-18T08:48:33;14.60;94.40
11083;DHT22;5595;50.186;8.468;2023-05-18T08:51:01;14.60;94.50
11083;DHT22;5595;50.186;8.468;2023-05-18T08:53:49;14.60;94.80
11083;DHT22;5595;50.186;8.468;2023-05-18T08:56:18;14.80;95.00
11083;DHT22;5595;50.186;8.468;2023-05-18T08:58:49;14.80;95.10
11083;DHT22;5595;50.186;8.468;2023-05-18T09:01:16;14.90;94.60
11083;DHT22;5595;50.186;8.468;2023-05-18T09:03:45;14.60;94.30
11083;DHT22;5595;50.186;8.468;2023-05-18T09:06:16;14.60;94.80
11083;DHT22;5595;50.186;8.468;2023-05-18T09:08:45;14.80;94.90
11083;DHT22;5595;50.186;8.468;2023-05-18T09:11:12;14.80;94.70
11083;DHT22;5595;50.186;8.468;2023-05-18T09:13:40;15.00;94.70
11083;DHT22;5595;50.186;8.468;2023-05-18T09:16:08;15.00;94.40
11083;DHT22;5595;50.186;8.468;2023-05-18T09:18:35;15.20;94.50
11083;DHT22;5595;50.186;8.468;2023-05-18T09:21:06;15.40;94.00
11083;DHT22;5595;50.186;8.468;2023-05-18T09:23:33;15.50;93.90
11083;DHT22;5595;50.186;8.468;2023-05-18T09:26:00;15.40;93.30
11083;DHT22;5595;50.186;8.468;2023-05-18T09:28:32;15.30;93.50
11083;DHT22;5595;50.186;8.468;2023-05-18T09:31:02;15.50;93.50
11083;DHT22;5595;50.186;8.468;2023-05-18T09:33:32;15.60;93.10
11083;DHT22;5595;50.186;8.468;2023-05-18T09:35:59;15.80;93.30
11083;DHT22;5595;50.186;8.468;2023-05-18T09:38:28;15.80;93.00
11083;DHT22;5595;50.186;8.468;2023-05-18T09:40:55;16.00;93.20
11083;DHT22;5595;50.186;8.468;2023-05-18T09:43:22;16.40;91.00
11083;DHT22;5595;50.186;8.468;2023-05-18T09:45:49;16.40;90.90
11083;DHT22;5595;50.186;8.468;2023-05-18T09:48:16;16.30;89.30
11083;DHT22;5595;50.186;8.468;2023-05-18T09:50:43;16.00;84.70
11083;DHT22;5595;50.186;8.468;2023-05-18T09:53:11;15.80;85.50
11083;DHT22;5595;50.186;8.468;2023-05-18T09:55:46;15.70;85.60
11083;DHT22;5595;50.186;8.468;2023-05-18T09:58:13;15.50;87.00
11083;DHT22;5595;50.186;8.468;2023-05-18T10:00:41;15.30;85.70
11083;DHT22;5595;50.186;8.468;2023-05-18T10:03:19;15.20;85.40
11083;DHT22;5595;50.186;8.468;2023-05-18T10:05:47;15.30;84.70
11083;DHT22;5595;50.186;8.468;2023-05-18T10:08:14;15.20;85.40
11083;DHT22;5595;50.186;8.468;2023-05-18T10:10:43;15.10;85.10
11083;DHT22;5595;50.186;8.468;2023-05-18T10:13:16;15.20;86.20
11083;DHT22;5595;50.186;8.468;2023-05-18T10:15:51;15.30;86.40
11083;DHT22;5595;50.186;8.468;2023-05-18T10:18:21;15.40;85.50
11083;DHT22;5595;50.186;8.468;2023-05-18T10:20:50;15.40;84.10
11083;DHT22;5595;50.186;8.468;2023-05-18T10:23:18;15.40;83.30
11083;DHT22;5595;50.186;8.468;2023-05-18T10:25:46;15.40;83.30
11083;DHT22;5595;50.186;8.468;2023-05-18T10:28:18;15.30;83.20
11083;DHT22;5595;50.186;8.468;2023-05-18T10:30:52;15.50;84.40
11083;DHT22;5595;50.186;8.468;2023-05-18T10:33:21;15.60;84.20
11083;DHT22;5595;50.186;8.468;2023-05-18T10:35:48;15.80;84.00
11083;DHT22;5595;50.186;8.468;2023-05-18T10:38:18;15.90;84.30
11083;DHT22;5595;50.186;8.468;2023-05-18T10:40:47;16.00;85.60
11083;DHT22;5595;50.186;8.468;2023-05-18T10:43:18;16.20;85.90
11083;DHT22;5595;50.186;8.468;2023-05-18T10:45:47;16.30;85.60
11083;DHT22;5595;50.186;8.468;2023-05-18T10:48:18;16.30;84.20
11083;DHT22;5595;50.186;8.468;2023-05-18T10:50:47;16.10;83.80
11083;DHT22;5595;50.186;8.468;2023-05-18T10:53:16;15.90;83.10
11083;DHT22;5595;50.186;8.468;2023-05-18T10:55:46;15.90;83.40
11083;DHT22;5595;50.186;8.468;2023-05-18T10:58:19;16.00;85.10
11083;DHT22;5595;50.186;8.468;2023-05-18T11:00:48;16.40;85.10
11083;DHT22;5595;50.186;8.468;2023-05-18T11:03:25;16.50;84.80
11083;DHT22;5595;50.186;8.468;2023-05-18T11:06:03;16.40;84.00
11083;DHT22;5595;50.186;8.468;2023-05-18T11:08:31;16.40;83.90
11083;DHT22;5595;50.186;8.468;2023-05-18T11:11:00;16.50;83.60
11083;DHT22;5595;50.186;8.468;2023-05-18T11:13:30;16.50;81.80
11083;DHT22;5595;50.186;8.468;2023-05-18T11:16:05;16.50;82.10
11083;DHT22;5595;50.186;8.468;2023-05-18T11:18:41;16.60;83.10
11083;DHT22;5595;50.186;8.468;2023-05-18T11:21:48;16.60;83.20
11083;DHT22;5595;50.186;8.468;2023-05-18T11:24:21;16.80;83.50
11083;DHT22;5595;50.186;8.468;2023-05-18T11:26:50;16.90;83.70
11083;DHT22;5595;50.186;8.468;2023-05-18T11:29:21;17.00;83.20
11083;DHT22;5595;50.186;8.468;2023-05-18T11:31:50;17.20;82.10
11083;DHT22;5595;50.186;8.468;2023-05-18T11:34:38;17.40;82.30
11083;DHT22;5595;50.186;8.468;2023-05-18T11:37:07;17.50;81.70
11083;DHT22;5595;50.186;8.468;2023-05-18T11:39:34;17.30;81.20
11083;DHT22;5595;50.186;8.468;2023-05-18T11:42:05;17.20;80.70
11083;DHT22;5595;50.186;8.468;2023-05-18T11:44:34;17.00;80.10
11083;DHT22;5595;50.186;8.468;2023-05-18T11:47:02;17.10;81.10
11083;DHT22;5595;50.186;8.468;2023-05-18T11:49:31;17.10;80.60
11083;DHT22;5595;50.186;8.468;2023-05-18T11:52:06;17.20;80.70
11083;DHT22;5595;50.186;8.468;2023-05-18T11:54:40;17.30;80.20
11083;DHT22;5595;50.186;8.468;2023-05-18T11:57:09;17.40;79.20
11083;DHT22;5595;50.186;8.468;2023-05-18T11:59:39;17.40;78.40
11083;DHT22;5595;50.186;8.468;2023-05-18T12:02:06;17.30;78.40
11083;DHT22;5595;50.186;8.468;2023-05-18T12:04:41;17.40;79.70
11083;DHT22;5595;50.186;8.468;2023-05-18T12:07:08;17.60;78.50
11083;DHT22;5595;50.186;8.468;2023-05-18T12:09:39;17.50;77.60
11083;DHT22;5595;50.186;8.468;2023-05-18T12:12:07;17.70;78.50
11083;DHT22;5595;50.186;8.468;2023-05-18T12:14:37;18.00;79.10
11083;DHT22;5595;50.186;8.468;2023-05-18T12:17:05;18.40;79.10
11083;DHT22;5595;50.186;8.468;2023-05-18T12:19:42;18.50;76.70
11083;DHT22;5595;50.186;8.468;2023-05-18T12:22:10;18.50;76.20
11083;DHT22;5595;50.186;8.468;2023-05-18T12:24:37;18.30;76.20
11083;DHT22;5595;50.186;8.468;2023-05-18T12:27:05;18.30;75.30
11083;DHT22;5595;50.186;8.468;2023-05-18T12:29:33;18.40;75.70
11083;DHT22;5595;50.186;8.468;2023-05-18T12:32:07;18.40;75.90
11083;DHT22;5595;50.186;8.468;2023-05-18T12:34:34;18.50;76.00
11083;DHT22;5595;50.186;8.468;2023-05-18T12:37:02;18.70;76.30
11083;DHT22;5595;50.186;8.468;2023-05-18T12:39:29;18.80;75.10
11083;DHT22;5595;50.186;8.468;2023-05-18T12:42:08;18.60;72.90
11083;DHT22;5595;50.186;8.468;2023-05-18T12:44:35;18.30;72.80
11083;DHT22;5595;50.186;8.468;2023-05-18T12:47:02;18.00;72.60
11083;DHT22;5595;50.186;8.468;2023-05-18T12:49:36;17.90;72.90
11083;DHT22;5595;50.186;8.468;2023-05-18T12:52:11;17.80;72.20
11083;DHT22;5595;50.186;8.468;2023-05-18T12:54:48;17.80;73.50
11083;DHT22;5595;50.186;8.468;2023-05-18T12:57:20;17.80;72.30
11083;DHT22;5595;50.186;8.468;2023-05-18T12:59:50;17.80;73.30
11083;DHT22;5595;50.186;8.468;2023-05-18T13:02:33;17.90;73.30
11083;DHT22;5595;50.186;8.468;2023-05-18T13:05:03;17.90;72.90
11083;DHT22;5595;50.186;8.468;2023-05-18T13:07:31;18.00;73.00
11083;DHT22;5595;50.186;8.468;2023-05-18T13:10:08;18.00;73.20
11083;DHT22;5595;50.186;8.468;2023-05-18T13:12:41;18.10;73.60
11083;DHT22;5595;50.186;8.468;2023-05-18T13:15:13;18.20;73.10
11083;DHT22;5595;50.186;8.468;2023-05-18T13:17:57;18.30;73.30
11083;DHT22;5595;50.186;8.468;2023-05-18T13:20:39;18.20;72.10
11083;DHT22;5595;50.186;8.468;2023-05-18T13:23:07;18.30;72.20
11083;DHT22;5595;50.186;8.468;2023-05-18T13:25:34;18.30;72.50
11083;DHT22;5595;50.186;8.468;2023-05-18T13:28:02;18.30;71.70
11083;DHT22;5595;50.186;8.468;2023-05-18T13:30:29;18.40;72.70
11083;DHT22;5595;50.186;8.468;2023-05-18T13:32:56;18.50;72.70
11083;DHT22;5595;50.186;8.468;2023-05-18T13:35:23;18.50;70.20
11083;DHT22;5595;50.186;8.468;2023-05-18T13:37:52;18.30;71.70
11083;DHT22;5595;50.186;8.468;2023-05-18T13:40:20;18.40;73.40
11083;DHT22;5595;50.186;8.468;2023-05-18T13:42:50;18.40;71.40
11083;DHT22;5595;50.186;8.468;2023-05-18T13:45:17;18.20;71.20
11083;DHT22;5595;50.186;8.468;2023-05-18T13:47:46;18.20;71.80
11083;DHT22;5595;50.186;8.468;2023-05-18T13:50:15;18.20;72.50
11083;DHT22;5595;50.186;8.468;2023-05-18T13:52:42;18.20;72.40
11083;DHT22;5595;50.186;8.468;2023-05-18T13:55:10;18.40;73.30
11083;DHT22;5595;50.186;8.468;2023-05-18T13:57:38;18.40;73.10
11083;DHT22;5595;50.186;8.468;2023-05-18T14:00:06;18.50;72.60
11083;DHT22;5595;50.186;8.468;2023-05-18T14:02:36;18.50;71.50
11083;DHT22;5595;50.186;8.468;2023-05-18T14:05:03;18.30;69.80
11083;DHT22;5595;50.186;8.468;2023-05-18T14:07:33;18.20;71.30
11083;DHT22;5595;50.186;8.468;2023-05-18T14:10:00;18.00;70.10
11083;DHT22;5595;50.186;8.468;2023-05-18T14:12:28;17.80;69.70
11083;DHT22;5595;50.186;8.468;2023-05-18T14:14:55;17.60;69.70
11083;DHT22;5595;50.186;8.468;2023-05-18T14:17:22;17.60;71.20
11083;DHT22;5595;50.186;8.468;2023-05-18T14:19:48;17.70;71.00
11083;DHT22;5595;50.186;8.468;2023-05-18T14:22:15;17.50;70.60
11083;DHT22;5595;50.186;8.468;2023-05-18T14:24:43;17.50;71.10
11083;DHT22;5595;50.186;8.468;2023-05-18T14:27:10;17.50;71.70
11083;DHT22;5595;50.186;8.468;2023-05-18T14:29:38;17.60;72.30
11083;DHT22;5595;50.186;8.468;2023-05-18T14:32:06;17.70;72.90
11083;DHT22;5595;50.186;8.468;2023-05-18T14:34:33;17.90;72.10
11083;DHT22;5595;50.186;8.468;2023-05-18T14:37:00;18.00;71.90
11083;DHT22;5595;50.186;8.468;2023-05-18T14:39:27;17.80;72.00
11083;DHT22;5595;50.186;8.468;2023-05-18T14:41:54;17.80;72.00
11083;DHT22;5595;50.186;8.468;2023-05-18T14:44:20;17.70;71.50
11083;DHT22;5595;50.186;8.468;2023-05-18T14:46:51;17.60;72.00
11083;DHT22;5595;50.186;8.468;2023-05-18T14:49:18;17.80;73.00
11083;DHT22;5595;50.186;8.468;2023-05-18T14:51:44;17.90;73.20
11083;DHT22;5595;50.186;8.468;2023-05-18T14:54:11;17.90;71.60
11083;DHT22;5595;50.186;8.468;2023-05-18T14:56:39;17.60;71.30
11083;DHT22;5595;50.186;8.468;2023-05-18T14:59:06;17.60;70.80
11083;DHT22;5595;50.186;8.468;2023-05-18T15:01:32;17.70;70.70
11083;DHT22;5595;50.186;8.468;2023-05-18T15:04:01;17.60;71.00
11083;DHT22;5595;50.186;8.468;2023-05-18T15:06:28;17.60;71.40
11083;DHT22;5595;50.186;8.468;2023-05-18T15:08:56;17.70;71.80
11083;DHT22;5595;50.186;8.468;2023-05-18T15:11:22;17.90;72.50
11083;DHT22;5595;50.186;8.468;2023-05-18T15:13:49;18.10;72.60
11083;DHT22;5595;50.186;8.468;2023-05-18T15:16:16;18.10;71.60
11083;DHT22;5595;50.186;8.468;2023-05-18T15:18:44;18.10;71.60
11083;DHT22;5595;50.186;8.468;2023-05-18T15:21:12;18.10;71.00
11083;DHT22;5595;50.186;8.468;2023-05-18T15:23:39;17.90;70.90
11083;DHT22;5595;50.186;8.468;2023-05-18T15:26:18;17.80;69.90
11083;DHT22;5595;50.186;8.468;2023-05-18T15:28:50;17.60;70.00
11083;DHT22;5595;50.186;8.468;2023-05-18T15:31:17;17.70;70.60
11083;DHT22;5595;50.186;8.468;2023-05-18T15:33:44;17.80;70.90
11083;DHT22;5595;50.186;8.468;2023-05-18T15:36:12;17.80;72.00
11083;DHT22;5595;50.186;8.468;2023-05-18T15:38:39;17.50;70.80
11083;DHT22;5595;50.186;8.468;2023-05-18T15:41:05;17.50;71.10
11083;DHT22;5595;50.186;8.468;2023-05-18T15:43:32;17.50;71.60
11083;DHT22;5595;50.186;8.468;2023-05-18T15:46:01;17.40;71.50
11083;DHT22;5595;50.186;8.468;2023-05-18T15:48:27;17.20;72.10
11083;DHT22;5595;50.186;8.468;2023-05-18T15:50:55;17.30;73.00
11083;DHT22;5595;50.186;8.468;2023-05-18T15:53:23;17.40;72.70
11083;DHT22;5595;50.186;8.468;2023-05-18T15:55:50;17.10;71.80
11083;DHT22;5595;50.186;8.468;2023-05-18T15:58:18;17.10;72.20
11083;DHT22;5595;50.186;8.468;2023-05-18T16:00:46;17.10;71.80
11083;DHT22;5595;50.186;8.468;2023-05-18T16:03:13;17.10;72.50